Metar Report
Metar
METAR KAXV 201456Z AUTO 22014G19KT 10SM CLR 02/M03 A3003 A02 728
METAR KAXV 201356Z AUTO 21011G15KT 10SM CLR 01/M03 A3001 A02 727
METAR KAXV 201256Z AUTO 21011G15KT 10SM CLR 01/M03 A2998 A02 726
METAR KAXV 201156Z AUTO 22013G19KT 10SM CLR 01/M03 A2997 A02 725
METAR KAXV 201056Z AUTO 22011G16KT 10SM CLR 01/M03 A2996 A02 724
METAR KAXV 200956Z AUTO 21012G17KT 10SM CLR 01/M04 A2995 A02 723
METAR KAXV 200856Z AUTO 21014G19KT 10SM CLR 01/M04 A2995 A02 722
METAR KAXV 200756Z AUTO 22013KT 10SM CLR 01/M03 A2995 A02 721
METAR KAXV 200656Z AUTO 22016KT 10SM CLR 02/M03 A2992 A02 720
METAR KAXV 200556Z AUTO 21017G23KT 10SM CLR 02/M03 A2991 A02 719
METAR KAXV 200456Z AUTO 21012G18KT 10SM CLR 01/M03 A2992 A02 718
METAR KAXV 200356Z AUTO 20010KT 10SM CLR 01/M03 A2993 A02 717
METAR KAXV 200256Z AUTO 20017KT 10SM CLR 01/M03 A2993 A02 716
METAR KAXV 200156Z AUTO 20018G22KT 10SM CLR 01/M04 A2993 A02 715
METAR KAXV 200056Z AUTO 19014KT 10SM CLR 01/M04 A2993 A02 714
METAR KAXV 192356Z AUTO 19014G18KT 10SM CLR 02/M04 A2994 A02 713
METAR KAXV 192256Z AUTO 19014G18KT 10SM CLR 02/M04 A2995 A02 712
METAR KAXV 192156Z AUTO 19013G18KT 10SM CLR 02/M04 A2996 A02 711
METAR KAXV 192056Z AUTO 19014KT 10SM CLR 02/M04 A2996 A02 710
METAR KAXV 191956Z AUTO 20012G19KT 10SM CLR 02/M04 A2997 A02 709
METAR KAXV 191856Z AUTO 20012G18KT 10SM CLR 01/M06 A2998 A02 708
METAR KAXV 191756Z AUTO 20012KT 10SM CLR 00/M06 A3001 A02 707
METAR KAXV 191656Z AUTO 20012KT 10SM CLR M01/M07 A3005 A02 706
METAR KAXV 191556Z AUTO 20009KT 10SM CLR M02/M08 A3006 A02 705
METAR KAXV 191456Z AUTO 20010KT 10SM CLR M03/M09 A3007 A02 704
METAR KAXV 191356Z AUTO 19012KT 10SM CLR M04/M09 A3006 A02 703
METAR KAXV 191256Z AUTO 20010KT 10SM CLR M05/M09 A3007 A02 702
METAR KAXV 191156Z AUTO 20010KT 10SM CLR M05/M09 A3009 A02 701
METAR KAXV 191056Z AUTO 21011G17KT 10SM CLR M04/M09 A3007 A02 700
METAR KAXV 190956Z AUTO 21011KT 10SM CLR M04/M09 A3007 A02 699
METAR KAXV 190856Z AUTO 21015KT 10SM CLR M04/M09 A3007 A02 698
METAR KAXV 190756Z AUTO 22013KT 10SM CLR M04/M09 A3008 A02 697
METAR KAXV 190656Z AUTO 22014G18KT 10SM CLR M04/M09 A3008 A02 696
METAR KAXV 190556Z AUTO 21013KT 10SM CLR M03/M10 A3008 A02 695
METAR KAXV 190456Z AUTO 22015G22KT 10SM CLR M03/M10 A3010 A02 694
METAR KAXV 190356Z AUTO 21012KT 10SM CLR M03/M09 A3011 A02 693
METAR KAXV 190256Z AUTO 21013KT 10SM CLR M03/M09 A3012 A02 692
METAR KAXV 190156Z AUTO 21015G19KT 10SM CLR M03/M09 A3013 A02 691
METAR KAXV 190056Z AUTO 21012KT 10SM CLR M03/M09 A3012 A02 690
METAR KAXV 182356Z AUTO 21013KT 10SM CLR M03/M09 A3013 A02 689
METAR KAXV 182256Z AUTO 20013KT 10SM CLR M03/M08 A3013 A02 688
METAR KAXV 182156Z AUTO 21012KT 10SM CLR M03/M08 A3014 A02 687
METAR KAXV 182056Z AUTO 22013KT 10SM CLR M02/M08 A3015 A02 686
METAR KAXV 181956Z AUTO 22011G16KT 10SM CLR M03/M08 A3015 A02 685
METAR KAXV 181856Z AUTO 22018G23KT 10SM CLR M04/M08 A3014 A02 684
METAR KAXV 181756Z AUTO 22016KT 7SM CLR M05/M09 A3017 A02 683
METAR KAXV 181656Z AUTO 22015G19KT 7SM CLR M06/M09 A3020 A02 682
METAR KAXV 181556Z AUTO 22016G20KT 7SM CLR M06/M10 A3023 A02 681
METAR KAXV 181456Z AUTO 23017KT 10SM CLR M08/M11 A3023 A02 680
METAR KAXV 181356Z AUTO 23016G22KT 10SM CLR M09/M12 A3023 A02 679
METAR KAXV 181256Z AUTO 22014KT 10SM CLR M10/M12 A3021 A02 678
METAR KAXV 181156Z AUTO 22013KT 10SM CLR M11/M13 A3023 A02 677
METAR KAXV 181056Z AUTO 21013KT 10SM CLR M11/M13 A3024 A02 676
METAR KAXV 180956Z AUTO 21010KT 10SM CLR M11/M13 A3025 A02 675
METAR KAXV 180856Z AUTO 21011KT 10SM CLR M11/M13 A3028 A02 674
METAR KAXV 180756Z AUTO 21010KT 10SM CLR M11/M13 A3029 A02 673
METAR KAXV 180656Z AUTO 22012KT 10SM CLR M11/M13 A3030 A02 672
METAR KAXV 180556Z AUTO 22011KT 10SM CLR M11/M13 A3031 A02 671
METAR KAXV 180456Z AUTO 21010KT 10SM CLR M10/M12 A3033 A02 670
METAR KAXV 180356Z AUTO 21012KT 10SM CLR M10/M12 A3035 A02 669
METAR KAXV 180256Z AUTO 22012KT 7SM CLR M09/M11 A3036 A02 668
METAR KAXV 180156Z AUTO 21011KT 7SM CLR M11/M12 A3038 A02 667
METAR KAXV 180056Z AUTO 22010KT 10SM CLR M10/M12 A3041 A02 666
METAR KAXV 172356Z AUTO 22009KT 10SM CLR M09/M11 A3043 A02 665
METAR KAXV 172256Z AUTO 23008KT 10SM CLR M09/M11 A3044 A02 664
METAR KAXV 172156Z AUTO 23010KT 7SM CLR M08/M11 A3045 A02 663
METAR KAXV 172056Z AUTO 23009KT 7SM CLR M08/M10 A3045 A02 662
METAR KAXV 171956Z AUTO 23009KT 7SM CLR M08/M11 A3046 A02 661
METAR KAXV 171856Z AUTO 23009KT 7SM CLR M09/M11 A3047 A02 660
METAR KAXV 171756Z AUTO 23008KT 7SM SCT011 M10/M12 A3049 A02 659
METAR KAXV 171656Z AUTO 23007KT 7SM SCT042 M11/M12 A3052 A02 658
METAR KAXV 171556Z AUTO 24008KT 4SM -SN SCT048 M11/M12 A3054 A02 657
METAR KAXV 171456Z AUTO 23006KT 2 1/2SM -SN BKN010 M12/M12 A3052 A02 656
METAR KAXV 171356Z AUTO 20005KT 1SM -SN OVC008 M12/M12 A3052 A02 655
METAR KAXV 171256Z AUTO 24008KT 5SM -SN OVC008 M12/M12 A3051 A02 654
METAR KAXV 171156Z AUTO 24006KT 5SM -SN OVC008 M12/M12 A3051 A02 653
METAR KAXV 171056Z AUTO 25006KT 7SM -SN OVC008 M12/M12 A3051 A02 652
METAR KAXV 170956Z AUTO 25005KT 5SM -SN OVC010 M12/M12 A3050 A02 651
METAR KAXV 170856Z AUTO 24006KT 7SM -SN OVC012 M12/M13 A3050 A02 650
METAR KAXV 170756Z AUTO 25007KT 7SM -SN OVC014 M12/M13 A3050 A02 649
METAR KAXV 170656Z AUTO 24007KT 7SM -SN OVC012 M12/M13 A3049 A02 648
METAR KAXV 170556Z AUTO 24006KT 10SM -SN OVC012 M13/M13 A3050 A02 647
METAR KAXV 170456Z AUTO 25007KT 10SM -SN OVC010 M13/M13 A3051 A02 646
METAR KAXV 170356Z AUTO 25009KT 10SM -SN OVC012 M13/M14 A3052 A02 645
METAR KAXV 170256Z AUTO 25007KT 10SM OVC012 M13/M15 A3052 A02 644
METAR KAXV 170156Z AUTO 25008KT 10SM -SN SCT014 BKN040 M14/M16 A3050 A02 643
METAR KAXV 170056Z AUTO 23004KT 7SM -SN OVC016 M15/M17 A3051 A02 642
METAR KAXV 162356Z AUTO 24004KT 10SM OVC016 M16/M17 A3050 A02 641
METAR KAXV 162256Z AUTO 24005KT 10SM SCT049 M16/M18 A3049 A02 640
METAR KAXV 162156Z AUTO 25008KT 10SM CLR M14/M17 A3047 A02 639
METAR KAXV 162056Z AUTO 26010KT 7SM CLR M14/M17 A3045 A02 638
METAR KAXV 161956Z AUTO 25009KT 7SM BKN015 M14/M17 A3045 A02 637
METAR KAXV 161856Z AUTO 24009KT 7SM -SN OVC017 M14/M17 A3044 A02 636
METAR KAXV 161756Z AUTO 24012KT 4SM -SN BKN019 BKN100 M15/M17 A3045 A02 635
METAR KAXV 161656Z AUTO 22010KT 2 1/2SM -SN CLR M16/M18 A3047 A02 634
METAR KAXV 161556Z AUTO 21010KT 2 1/2SM -SN SCT027 M16/M18 A3048 A02 633
METAR KAXV 161456Z AUTO 23009KT 10SM CLR M17/M18 A3048 A02 632
METAR KAXV 161356Z AUTO 20005KT 7SM CLR M19/M19 A3047 A02 631
METAR KAXV 161256Z AUTO 21005KT 10SM CLR M18/M19 A3046 A02 630
METAR KAXV 161156Z AUTO 24008KT 7SM BKN018 M17/M18 A3045 A02 629
METAR KAXV 161056Z AUTO 24009KT 7SM OVC018 M14/M16 A3043 A02 628
METAR KAXV 160956Z AUTO 23008KT 7SM OVC018 M14/M16 A3041 A02 627
METAR KAXV 160856Z AUTO 24008KT 7SM OVC020 M15/M16 A3042 A02 626
METAR KAXV 160756Z AUTO 24005KT 7SM SCT022 M17/M17 A3040 A02 625
METAR KAXV 160656Z AUTO 25009KT 7SM BKN020 M14/M15 A3038 A02 624
METAR KAXV 160556Z AUTO 24009KT 4SM -SN SCT018 M12/M13 A3036 A02 623
METAR KAXV 160456Z AUTO 28006KT 7SM -SN OVC020 M11/M12 A3036 A02 622
METAR KAXV 160356Z AUTO 28013G18KT 7SM -SN OVC016 M10/M12 A3035 A02 621
METAR KAXV 160256Z AUTO 27011G20KT 5SM -SN OVC012 M08/M08 A3032 A02 620
METAR KAXV 160156Z AUTO 26007KT 3SM -SN SCT011 OVC017 M04/M04 A3029 A02 619
METAR KAXV 160056Z AUTO 21007KT 7SM SCT020 SCT039 OVC047 M04/M04 A3028 A02 618
METAR KAXV 152356Z AUTO 21007KT 7SM -SN BKN016 BKN020 OVC032 M04/M04 A3027 A02 617
METAR KAXV 152256Z AUTO 22005KT 3SM -SN SCT008 OVC023 M04/M04 A3025 A02 616
METAR KAXV 152156Z AUTO 22009KT 4SM -SN OVC012 M03/M03 A3023 A02 615
METAR KAXV 152056Z AUTO 22010KT 7SM -SN OVC014 M03/M03 A3020 A02 614
METAR KAXV 151956Z AUTO 21009KT 7SM -SN OVC016 M03/M04 A3017 A02 613
METAR KAXV 151856Z AUTO 19012KT 4SM -SN SCT013 BKN018 BKN060 M03/M04 A3018 A02 612
METAR KAXV 151756Z AUTO 18010G14KT 1 3/4SM -SN OVC011 M04/M04 A3020 A02 611
METAR KAXV 151656Z AUTO 18013KT 3SM -SN SCT015 SCT021 SCT060 M04/M04 A3024 A02 610
METAR KAXV 151556Z AUTO 16009G14KT 5SM -SN SCT013 BKN038 OVC046 M06/M06 A3025 A02 609
METAR KAXV 151456Z AUTO 16008G15KT 7SM -SN SCT012 BKN034 OVC050 M07/M07 A3027 A02 608